Language selection

Weather shortcuts

Johnstone Strait: Past 24 Hour Conditions

 

Georgia Strait - 46303

08:00 PM PDT 14 April 2024Buoy position: 49.03N 123.43W
Disclaimer

This table is a summary of hourly weather conditions for the past 24 hours.
Please note that these observations might not always be representative of weather conditions over their associated marine area.

Date / Time
(PDT)
Wind(knots) Wave height(m) Wave period(s) Pressure(kPa) Air tempC) Water tempC)
14 April 2024
20:00 NW 2 gusts 2 0.12 3.0 101.7 10 11
19:00 NNW 2 gusts 3 0.11 2.9 101.6 10 11
18:00 NNW 2 gusts 3 0.17 3.1 101.7 11 11
17:00 WNW 1 gusts 2 0.21 2.9 101.7 12 11
16:00 calm 0.28 3.0 101.7 11 11
15:00 SE 1 gusts 2 0.31 3.1 101.7 11 11
14:00 N 3 gusts 5 0.36 3.2 101.7 10 10
13:00 NNW 9 gusts 10 0.48 3.3 101.7 9 10
12:00 NNW 11 gusts 12 0.51 3.2 101.7 9 10
11:00 NNW 12 gusts 15 0.63 3.3 101.7 9 10
10:00 NNW 12 gusts 14 0.71 3.3 101.7 9 10
9:00 NNW 16 gusts 18 0.62 3.2 101.7 9 10
8:00 NNW 17 gusts 20 0.60 3.1 101.6 9 10
7:00 NW 16 gusts 19 0.61 3.1 101.6 9 10
6:00 NW 17 gusts 20 0.66 3.2 101.5 10 10
5:00 NW 17 gusts 21 0.61 3.2 101.5 10 10
4:00 NW 17 gusts 20 0.60 3.3 101.5 10 9
3:00 NW 12 gusts 15 0.42 2.8 101.5 11 9
2:00 WNW 5 gusts 8 0.24 2.9 101.5 11 9
1:00 NNE 4 gusts 5 0.28 3.0 101.5 10 9
0:00 WSW 4 gusts 6 0.35 3.2 101.4 11 9
13 April 2024
23:00 W 8 gusts 9 0.32 3.2 101.4 11 9
22:00 WNW 11 gusts 12 0.39 3.4 101.4 12 9
21:00 WNW 9 gusts 10 0.47 3.4 101.4 12 9
20:00 NW 12 gusts 15 0.64 3.4 101.3 12 10

Zoom-in to make a selection

Map of Pacific - Georgia Basin marine weather areas Sentry Shoal - 46131 Halibut Bank - 46146 La Perouse Bank - 46206 Georgia Strait - 46303 English Bay – 46304 Discovery Island Esquimalt Harbour Kelp Reefs Malahat Race Rocks Lightstation Saturna Island Sheringham Point University of Victoria Victoria Gonzales Victoria Int'l Airport Ballenas Islands Campbell River Airport Comox Airport Entrance Island Fanny Island Nanaimo Airport Sisters Islets Estevan Point Port Alberni Tofino Airport Grief Point Howe Sound - Pam Rocks Powell River Airport Sechelt Squamish Airport Point Atkinson Sand Heads Lightstation Tsawwassen Ferry Terminal Vancouver Int'l Airport Vancouver Harbour West Vancouver
Legend:
buoy Buoy
land station Land Station

Pacific - Georgia Basin Area

Another Region

Date modified: